Time;durP1;ratioP1;P1;durP2;ratioP2;P2;SDS_P1;SDS_P2;PMS_P1;PMS_P2;Temp;Humidity;BMP_temperature;BMP_pressure;BME280_temperature;BME280_humidity;BME280_pressure;Samples;Min_cycle;Max_cycle;Signal;HPM_P1;HPM_P2
2024/01/29 00:01:07;;;;;;;4.90;4.30;;;;;;;21.89;30.36;96612.09;6229639;27;109014;-58
2024/01/29 00:04:10;;;;;;;4.37;3.97;;;;;;;21.88;30.31;96611.31;6236062;27;109102;-58
2024/01/29 00:07:14;;;;;;;4.10;3.80;;;;;;;21.86;29.77;96609.97;6234829;27;109793;-59
2024/01/29 00:10:18;;;;;;;4.43;4.03;;;;;;;21.86;29.85;96618.75;6214205;27;110067;-58
2024/01/29 00:13:21;;;;;;;4.43;4.03;;;;;;;21.85;30.09;96609.16;6211385;28;109053;-59
2024/01/29 00:16:24;;;;;;;4.40;4.00;;;;;;;21.88;30.21;96613.16;6211623;28;110204;-59
2024/01/29 00:19:27;;;;;;;3.77;3.47;;;;;;;21.88;29.85;96613.16;6230744;28;110049;-59
2024/01/29 00:22:32;;;;;;;4.03;3.63;;;;;;;21.88;29.94;96613.97;6225220;27;110218;-60
2024/01/29 00:25:35;;;;;;;4.00;3.70;;;;;;;21.86;30.04;96620.63;6234641;27;110251;-60
2024/01/29 00:28:38;;;;;;;4.70;3.93;;;;;;;21.87;29.68;96620.38;6234915;27;109198;-59
2024/01/29 00:31:41;;;;;;;4.07;3.67;;;;;;;21.85;29.70;96616.38;6211251;28;111101;-59
2024/01/29 00:34:46;;;;;;;4.10;3.70;;;;;;;21.87;29.47;96615.03;6222074;28;108894;-59
2024/01/29 00:37:50;;;;;;;4.30;3.90;;;;;;;21.84;29.64;96618.19;6217574;28;110201;-59
2024/01/29 00:40:53;;;;;;;5.63;3.77;;;;;;;21.86;29.97;96620.63;6216249;28;110051;-59
2024/01/29 00:43:57;;;;;;;4.43;3.87;;;;;;;21.83;29.64;96619.28;6217738;28;109515;-59
2024/01/29 00:47:00;;;;;;;4.40;3.60;;;;;;;21.80;29.92;96620.56;6231825;27;109123;-59
2024/01/29 00:50:04;;;;;;;4.33;3.93;;;;;;;21.83;29.99;96623.81;6234565;27;109251;-59
2024/01/29 00:53:09;;;;;;;4.50;3.97;;;;;;;21.80;29.49;96627.78;6235426;27;109111;-60
2024/01/29 00:56:12;;;;;;;3.50;3.20;;;;;;;21.81;29.74;96622.16;6223900;27;109278;-59
2024/01/29 00:59:15;;;;;;;4.27;3.97;;;;;;;21.79;29.77;96631.50;6226924;27;109058;-59
2024/01/29 01:02:18;;;;;;;3.87;3.47;;;;;;;21.78;29.78;96628.03;6224070;27;109915;-59
2024/01/29 01:05:21;;;;;;;4.40;3.77;;;;;;;21.78;29.91;96636.03;6235801;27;109320;-59
2024/01/29 01:08:25;;;;;;;3.83;3.53;;;;;;;21.81;30.01;96632.03;6221704;27;110113;-59
2024/01/29 01:11:29;;;;;;;3.70;3.40;;;;;;;21.78;29.73;96636.03;6231345;28;110107;-60
2024/01/29 01:14:32;;;;;;;4.10;3.70;;;;;;;21.78;29.68;96630.69;6228157;27;108863;-59
2024/01/29 01:17:35;;;;;;;3.63;3.33;;;;;;;21.79;29.84;96634.97;6230176;28;110485;-59
2024/01/29 01:20:38;;;;;;;3.70;3.40;;;;;;;21.81;29.45;96640.81;6226114;27;109213;-60
2024/01/29 01:23:42;;;;;;;4.40;4.00;;;;;;;21.81;29.81;96634.69;6220117;28;109541;-59
2024/01/29 01:26:45;;;;;;;4.80;3.90;;;;;;;21.81;29.64;96632.03;6211428;27;108814;-59
2024/01/29 01:29:49;;;;;;;4.33;3.93;;;;;;;21.82;29.33;96631.00;6205713;28;110144;-58
2024/01/29 01:32:52;;;;;;;3.67;3.37;;;;;;;21.81;29.45;96632.03;6227533;28;110741;-58
2024/01/29 01:35:55;;;;;;;3.77;3.47;;;;;;;21.84;29.14;96636.84;6213261;27;110070;-58
2024/01/29 01:38:59;;;;;;;4.33;3.60;;;;;;;21.84;29.23;96636.06;6220502;28;109274;-57
2024/01/29 01:42:04;;;;;;;4.20;3.60;;;;;;;21.84;29.27;96628.88;6207609;27;109359;-57
2024/01/29 01:45:08;;;;;;;3.60;3.30;;;;;;;21.84;29.55;96634.19;6230602;28;109348;-57
2024/01/29 01:48:12;;;;;;;3.80;3.47;;;;;;;21.83;29.46;96635.25;6215543;27;110755;-57
2024/01/29 01:51:15;;;;;;;3.63;3.33;;;;;;;21.84;29.57;96634.19;6217935;28;109347;-57
2024/01/29 01:54:21;;;;;;;3.57;3.27;;;;;;;21.84;29.46;96636.84;6223085;27;109091;-57
2024/01/29 01:57:24;;;;;;;4.10;3.67;;;;;;;21.83;29.14;96634.47;6233020;28;111113;-57
2024/01/29 02:00:27;;;;;;;4.00;3.60;;;;;;;21.84;29.30;96630.72;6224862;28;110401;-57
2024/01/29 02:03:31;;;;;;;4.30;3.63;;;;;;;21.85;29.23;96637.69;6208604;28;109565;-58
2024/01/29 02:06:34;;;;;;;3.63;3.33;;;;;;;21.84;29.46;96631.53;6228360;27;109339;-58
2024/01/29 02:09:39;;;;;;;4.53;4.13;;;;;;;21.86;29.39;96641.94;6211757;28;110035;-57
2024/01/29 02:12:43;;;;;;;4.37;3.93;;;;;;;21.86;28.85;96644.63;6213124;28;109250;-57
2024/01/29 02:15:46;;;;;;;5.10;4.20;;;;;;;21.85;28.96;96637.69;6199576;28;109077;-57
2024/01/29 02:18:49;;;;;;;4.73;4.33;;;;;;;21.85;29.00;96643.81;6216797;28;110067;-57
2024/01/29 02:21:54;;;;;;;4.30;3.90;;;;;;;21.82;28.89;96639.00;6209098;28;110453;-57
2024/01/29 02:24:59;;;;;;;4.37;3.90;;;;;;;21.84;29.05;96642.19;6218871;28;109093;-56
2024/01/29 02:28:02;;;;;;;4.40;4.00;;;;;;;21.83;29.29;96645.91;6209377;27;110417;-57
2024/01/29 02:31:05;;;;;;;4.50;4.10;;;;;;;21.84;29.12;96642.19;6213643;27;109153;-56
2024/01/29 02:34:09;;;;;;;4.13;3.80;;;;;;;21.84;29.03;96642.19;6232207;28;109144;-58
2024/01/29 02:37:12;;;;;;;4.60;4.20;;;;;;;21.85;29.01;96643.81;6227987;27;110186;-59
2024/01/29 02:40:17;;;;;;;4.50;4.10;;;;;;;21.86;28.87;96656.06;6212558;27;110228;-57
2024/01/29 02:43:20;;;;;;;4.63;4.23;;;;;;;21.85;29.16;96657.13;6211289;28;109089;-56
2024/01/29 02:46:23;;;;;;;4.27;3.87;;;;;;;21.86;29.06;96655.28;6233090;27;109689;-57
2024/01/29 02:49:26;;;;;;;4.87;4.37;;;;;;;21.84;28.70;96652.03;6202105;27;109305;-58
2024/01/29 02:52:29;;;;;;;5.03;4.63;;;;;;;21.87;28.96;96648.88;6208490;28;109020;-59
2024/01/29 02:55:34;;;;;;;5.00;4.60;;;;;;;21.88;28.99;96642.47;6228980;28;109055;-59
2024/01/29 02:58:37;;;;;;;5.03;4.63;;;;;;;21.86;28.95;96649.94;6230838;27;109126;-59
2024/01/29 03:01:40;;;;;;;4.20;3.80;;;;;;;21.86;28.78;96652.63;6223155;27;110075;-58
2024/01/29 03:04:43;;;;;;;4.80;4.40;;;;;;;21.86;28.68;96650.75;6228593;27;110142;-58
2024/01/29 03:07:46;;;;;;;4.27;3.90;;;;;;;21.84;28.57;96655.50;6235618;27;110171;-58
2024/01/29 03:10:51;;;;;;;4.67;4.27;;;;;;;21.83;29.06;96645.91;6236724;27;110202;-59
2024/01/29 03:13:54;;;;;;;5.00;4.53;;;;;;;21.86;29.18;96644.63;6226788;27;110425;-59
2024/01/29 03:16:57;;;;;;;4.93;4.53;;;;;;;21.86;28.64;96645.41;6236837;27;110196;-59
2024/01/29 03:20:00;;;;;;;4.90;4.40;;;;;;;21.85;28.90;96649.16;6222755;27;109340;-59
2024/01/29 03:23:04;;;;;;;4.87;4.47;;;;;;;21.84;28.74;96652.84;6220218;28;109098;-59
2024/01/29 03:26:08;;;;;;;4.70;4.30;;;;;;;21.85;28.78;96645.69;6233204;27;110390;-59
2024/01/29 03:29:11;;;;;;;4.40;4.00;;;;;;;21.86;29.18;96644.63;6235539;27;109192;-59
2024/01/29 03:32:14;;;;;;;4.50;4.10;;;;;;;21.86;28.74;96648.09;6236868;28;110173;-59
2024/01/29 03:35:17;;;;;;;4.67;4.17;;;;;;;21.86;28.69;96644.63;6225430;27;110225;-58
2024/01/29 03:38:20;;;;;;;5.00;4.50;;;;;;;21.86;28.71;96649.94;6236740;27;109803;-58
2024/01/29 03:41:25;;;;;;;4.60;4.20;;;;;;;21.85;28.59;96645.69;6212070;28;110307;-58
2024/01/29 03:44:28;;;;;;;4.50;4.10;;;;;;;21.87;28.44;96640.88;6222474;27;109927;-58
2024/01/29 03:47:31;;;;;;;4.43;4.03;;;;;;;21.86;28.84;96641.94;6225565;27;110115;-59
2024/01/29 03:50:34;;;;;;;4.50;4.10;;;;;;;21.87;28.87;96644.34;6235411;27;109911;-59
2024/01/29 03:53:37;;;;;;;4.30;3.90;;;;;;;21.87;28.39;96646.22;6234068;27;109082;-59
2024/01/29 03:56:41;;;;;;;4.70;4.30;;;;;;;21.86;28.91;96647.28;6213241;27;109814;-59
2024/01/29 03:59:44;;;;;;;4.50;4.10;;;;;;;21.86;28.67;96652.63;6227337;28;110089;-59
2024/01/29 04:02:49;;;;;;;4.37;3.93;;;;;;;21.85;28.51;96648.34;6235051;27;110446;-59
2024/01/29 04:05:52;;;;;;;5.83;4.17;;;;;;;21.86;28.93;96655.28;6230171;28;109254;-59
2024/01/29 04:08:55;;;;;;;4.83;4.43;;;;;;;21.89;28.86;96649.41;6222188;27;109405;-58
2024/01/29 04:12:00;;;;;;;4.63;4.23;;;;;;;21.55;29.55;96652.50;6211978;28;109267;-59
2024/01/29 04:15:03;;;;;;;6.30;5.80;;;;;;;21.12;29.29;96656.34;6218972;28;109114;-59
2024/01/29 04:18:06;;;;;;;8.13;6.70;;;;;;;20.86;28.82;96647.41;6211090;28;109197;-59
2024/01/29 04:21:10;;;;;;;19.17;17.67;;;;;;;20.60;29.34;96649.91;6219765;27;109120;-59
2024/01/29 04:24:13;;;;;;;8.23;7.43;;;;;;;20.67;29.01;96651.53;6230082;28;110391;-60
2024/01/29 04:27:18;;;;;;;136.33;125.73;;;;;;;20.60;29.38;96654.44;6233546;27;109237;-60
2024/01/29 04:30:21;;;;;;;15.87;14.47;;;;;;;20.51;28.53;96661.28;6234973;27;109124;-60
2024/01/29 04:33:24;;;;;;;20.37;18.57;;;;;;;20.49;28.48;96663.38;6218277;27;110150;-61
2024/01/29 04:36:27;;;;;;;21.00;19.20;;;;;;;20.45;28.30;96665.75;6224773;27;109128;-60
2024/01/29 04:39:31;;;;;;;61.07;56.33;;;;;;;20.38;29.00;96669.69;6217819;28;109132;-60
2024/01/29 04:42:35;;;;;;;33.27;30.57;;;;;;;20.20;28.75;96671.66;6219211;27;109349;-59
2024/01/29 04:45:38;;;;;;;15.50;14.17;;;;;;;20.11;28.00;96675.81;6222270;28;109080;-61
2024/01/29 04:48:42;;;;;;;11.70;10.67;;;;;;;20.37;27.67;96676.88;6235913;27;109135;-60
2024/01/29 04:51:45;;;;;;;13.60;12.40;;;;;;;20.50;27.22;96683.59;6233643;27;109217;-60
2024/01/29 04:54:48;;;;;;;12.00;10.90;;;;;;;20.57;28.63;96686.84;6212165;27;110044;-60
2024/01/29 04:57:53;;;;;;;13.60;12.30;;;;;;;20.49;29.38;96693.44;6216952;28;109110;-59
2024/01/29 05:00:56;;;;;;;12.10;11.00;;;;;;;20.35;29.70;96699.47;6210297;27;109806;-58
2024/01/29 05:03:59;;;;;;;10.07;9.13;;;;;;;20.27;29.86;96701.50;6210833;28;110033;-60
2024/01/29 05:07:05;;;;;;;9.07;8.30;;;;;;;20.22;30.81;96709.41;6225686;27;110474;-58
2024/01/29 05:10:09;;;;;;;8.33;7.37;;;;;;;20.38;31.21;96704.25;6235408;27;109366;-58
2024/01/29 05:13:14;;;;;;;7.97;7.27;;;;;;;20.34;31.12;96714.63;6233339;27;109220;-58
2024/01/29 05:16:17;;;;;;;6.60;5.97;;;;;;;20.85;31.14;96710.47;6223728;27;109085;-61
2024/01/29 05:19:20;;;;;;;7.27;6.57;;;;;;;21.02;30.82;96699.66;6206849;28;110265;-60
2024/01/29 05:22:24;;;;;;;7.20;6.10;;;;;;;21.12;30.61;96709.56;6234849;27;108956;-60
2024/01/29 05:25:27;;;;;;;8.07;5.87;;;;;;;21.20;30.38;96699.25;6234858;27;110274;-59
2024/01/29 05:28:31;;;;;;;6.10;5.30;;;;;;;21.27;30.38;96708.84;6223058;27;110436;-59
2024/01/29 05:31:34;;;;;;;6.73;5.70;;;;;;;21.32;30.11;96707.00;6220924;27;109049;-60
2024/01/29 05:34:37;;;;;;;6.10;5.50;;;;;;;21.36;29.97;96716.09;6213945;28;110125;-63
2024/01/29 05:37:41;;;;;;;5.30;4.70;;;;;;;21.36;29.78;96710.78;6234399;27;109340;-60
2024/01/29 05:40:44;;;;;;;6.37;5.77;;;;;;;21.38;29.42;96703.31;6223947;27;110305;-60
2024/01/29 05:43:48;;;;;;;5.67;5.17;;;;;;;21.44;29.52;96720.91;6234876;27;109248;-60
2024/01/29 05:46:51;;;;;;;5.80;5.30;;;;;;;21.43;29.34;96716.66;6234269;27;109836;-60
2024/01/29 05:49:54;;;;;;;5.23;4.73;;;;;;;21.48;29.56;96723.84;6234665;27;110146;-59
2024/01/29 05:52:59;;;;;;;4.80;4.40;;;;;;;21.49;29.17;96725.44;6224583;27;111388;-59
2024/01/29 05:56:05;;;;;;;6.10;4.87;;;;;;;21.51;29.00;96728.69;6234533;27;109543;-60
2024/01/29 05:59:09;;;;;;;5.67;4.77;;;;;;;21.49;29.52;96728.91;6233583;27;109736;-60
2024/01/29 06:02:12;;;;;;;5.17;4.67;;;;;;;21.52;28.84;96731.09;6227857;27;110284;-58
2024/01/29 06:05:16;;;;;;;4.97;4.47;;;;;;;21.54;29.34;96727.34;6230944;27;110138;-60
2024/01/29 06:08:20;;;;;;;4.87;4.47;;;;;;;21.55;29.16;96723.63;6234094;27;108990;-60
2024/01/29 06:11:23;;;;;;;4.70;4.30;;;;;;;21.55;28.76;96721.78;6233960;27;109231;-60
2024/01/29 06:14:28;;;;;;;4.93;4.43;;;;;;;21.56;28.85;96733.22;6222273;27;109055;-60
2024/01/29 06:17:31;;;;;;;5.23;4.73;;;;;;;21.56;29.09;96726.03;6234195;27;110260;-59
2024/01/29 06:20:34;;;;;;;5.10;4.60;;;;;;;21.58;28.75;96731.09;6233922;27;109347;-58
2024/01/29 06:23:37;;;;;;;5.10;4.60;;;;;;;21.60;28.89;96734.28;6234456;27;110095;-59
2024/01/29 06:26:41;;;;;;;5.33;4.30;;;;;;;21.62;28.59;96738.28;6223596;27;109245;-59
2024/01/29 06:29:45;;;;;;;5.30;4.67;;;;;;;21.61;28.69;96743.88;6233545;27;109646;-59
2024/01/29 06:32:48;;;;;;;4.53;4.13;;;;;;;21.61;28.49;96741.22;6232964;27;109147;-59
2024/01/29 06:35:51;;;;;;;4.33;3.77;;;;;;;21.62;28.38;96740.97;6229164;27;109975;-59
2024/01/29 06:38:55;;;;;;;4.40;4.00;;;;;;;21.64;28.99;96748.69;6228129;27;109256;-60
2024/01/29 06:41:58;;;;;;;3.97;3.60;;;;;;;21.62;28.99;96753.47;6238147;27;109365;-59
2024/01/29 06:45:04;;;;;;;5.10;4.20;;;;;;;21.64;28.88;96752.16;6237971;27;109306;-59
2024/01/29 06:48:08;;;;;;;4.47;4.07;;;;;;;21.68;28.42;96755.13;6228647;27;111083;-59
2024/01/29 06:51:11;;;;;;;5.03;4.03;;;;;;;21.67;28.37;96754.28;6238017;27;110095;-59
2024/01/29 06:54:15;;;;;;;3.73;3.43;;;;;;;21.66;28.57;96755.34;6238386;28;110335;-58
2024/01/29 06:57:18;;;;;;;5.03;4.20;;;;;;;21.65;28.38;96752.97;6237145;27;109076;-59
2024/01/29 07:00:23;;;;;;;4.50;4.10;;;;;;;21.68;28.74;96760.44;6226483;27;110182;-59
2024/01/29 07:03:27;;;;;;;4.47;4.07;;;;;;;21.66;28.63;96741.25;6236788;27;109002;-59
2024/01/29 07:06:31;;;;;;;4.57;4.17;;;;;;;21.67;28.27;96753.50;6237382;27;109702;-59
2024/01/29 07:09:34;;;;;;;3.53;3.23;;;;;;;21.69;28.50;96752.19;6237748;27;110176;-59
2024/01/29 07:12:37;;;;;;;4.07;3.67;;;;;;;21.69;28.34;96740.75;6226538;27;109139;-59
2024/01/29 07:15:43;;;;;;;4.70;4.30;;;;;;;21.69;28.38;96751.41;6237710;27;110065;-59
2024/01/29 07:18:46;;;;;;;3.77;3.47;;;;;;;21.70;28.68;96753.78;6237614;27;111419;-59
2024/01/29 07:21:50;;;;;;;3.37;3.07;;;;;;;21.70;28.25;96753.00;6229851;27;109275;-60
2024/01/29 07:24:53;;;;;;;4.50;4.10;;;;;;;21.69;28.18;96751.41;6235702;27;109379;-60
2024/01/29 07:27:59;;;;;;;3.87;3.47;;;;;;;21.70;28.22;96755.66;6237566;27;109254;-61
2024/01/29 07:31:04;;;;;;;4.07;3.67;;;;;;;21.69;28.36;96756.72;6237403;27;109073;-60
2024/01/29 07:34:07;;;;;;;3.80;3.50;;;;;;;21.70;28.46;96758.31;6225533;27;110068;-60
2024/01/29 07:37:12;;;;;;;3.90;3.50;;;;;;;21.69;28.19;96759.38;6236865;27;109094;-60
2024/01/29 07:40:15;;;;;;;3.67;3.37;;;;;;;21.74;28.11;96756.72;6236513;27;109089;-59
2024/01/29 07:43:19;;;;;;;4.10;3.70;;;;;;;21.74;28.32;96756.72;6237178;27;110070;-60
2024/01/29 07:46:23;;;;;;;3.70;3.33;;;;;;;21.73;28.13;96757.81;6226112;27;110133;-61
2024/01/29 07:49:27;;;;;;;3.87;3.33;;;;;;;21.73;28.31;96761.25;6237336;28;110123;-60
2024/01/29 07:52:31;;;;;;;3.77;3.20;;;;;;;21.73;27.99;96750.59;6235768;27;110104;-60
2024/01/29 07:55:34;;;;;;;3.30;3.00;;;;;;;21.76;27.95;96759.94;6231942;27;109411;-60
2024/01/29 07:58:37;;;;;;;3.47;3.17;;;;;;;21.77;28.12;96756.22;6230579;27;110586;-60
2024/01/29 08:01:44;;;;;;;3.00;2.70;;;;;;;21.75;28.33;96764.47;6236622;27;110212;-60
2024/01/29 08:04:48;;;;;;;3.90;3.50;;;;;;;21.76;28.33;96767.94;6235973;28;110095;-59
2024/01/29 08:07:51;;;;;;;3.43;3.03;;;;;;;21.79;28.38;96765.53;6225551;27;109717;-58
2024/01/29 08:10:54;;;;;;;3.47;3.17;;;;;;;21.81;28.37;96767.94;6236591;27;109570;-59
2024/01/29 08:13:58;;;;;;;4.20;3.27;;;;;;;21.81;27.99;96770.59;6235926;27;109272;-59
2024/01/29 08:17:03;;;;;;;3.93;3.53;;;;;;;21.81;28.45;96781.25;6236073;27;109204;-60
2024/01/29 08:20:07;;;;;;;3.87;3.20;;;;;;;21.82;28.34;96788.22;6225602;28;110095;-59
2024/01/29 08:23:10;;;;;;;2.90;2.70;;;;;;;21.81;28.20;96791.91;6236061;27;109465;-59
2024/01/29 08:26:13;;;;;;;3.80;3.50;;;;;;;21.83;27.89;96795.16;6236084;27;109628;-59
2024/01/29 08:29:16;;;;;;;3.47;3.17;;;;;;;21.83;28.23;96797.03;6234633;27;109158;-59
2024/01/29 08:32:23;;;;;;;3.40;3.10;;;;;;;21.84;27.99;96798.63;6229063;27;110391;-59
2024/01/29 08:35:26;;;;;;;3.47;3.17;;;;;;;21.85;27.82;96801.06;6234995;27;109958;-58
2024/01/29 08:38:29;;;;;;;3.50;2.80;;;;;;;21.85;28.14;96806.38;6232969;27;110103;-57
2024/01/29 08:41:32;;;;;;;3.17;2.87;;;;;;;21.86;28.00;96810.66;6210436;28;109286;-58
2024/01/29 08:44:37;;;;;;;3.20;2.90;;;;;;;21.85;27.83;96811.72;6235714;27;110151;-57
2024/01/29 08:47:42;;;;;;;3.10;2.80;;;;;;;21.88;27.70;96811.19;6235359;27;109162;-58
2024/01/29 08:50:45;;;;;;;2.70;2.50;;;;;;;21.85;27.95;96809.06;6235745;27;109916;-58
2024/01/29 08:53:48;;;;;;;3.20;2.90;;;;;;;21.85;28.11;96810.91;6226185;27;109393;-57
2024/01/29 08:56:51;;;;;;;2.77;2.53;;;;;;;21.85;28.01;96817.03;6235598;27;111182;-57
2024/01/29 08:59:55;;;;;;;3.00;2.70;;;;;;;21.87;27.69;96814.13;6235134;27;109833;-57
2024/01/29 09:03:00;;;;;;;3.20;2.90;;;;;;;21.89;27.90;96819.97;6234932;27;108948;-57
2024/01/29 09:06:03;;;;;;;2.53;2.13;;;;;;;21.87;27.65;96817.59;6223639;27;109132;-57
2024/01/29 09:09:07;;;;;;;3.67;2.90;;;;;;;21.88;27.57;96816.53;6235933;27;108548;-57
2024/01/29 09:12:11;;;;;;;2.60;2.30;;;;;;;21.85;27.66;96814.38;6234596;27;109070;-58
2024/01/29 09:15:14;;;;;;;3.00;2.80;;;;;;;21.86;27.66;96815.19;6229470;27;109336;-58
2024/01/29 09:18:18;;;;;;;2.80;2.50;;;;;;;21.86;27.93;96815.97;6229605;27;109391;-57
2024/01/29 09:21:21;;;;;;;3.00;2.70;;;;;;;21.86;27.82;96821.31;6235198;27;109071;-58
2024/01/29 09:24:26;;;;;;;3.17;2.83;;;;;;;21.87;27.47;96814.91;6235009;27;109240;-59
2024/01/29 09:27:32;;;;;;;2.30;2.00;;;;;;;21.84;27.85;96807.41;6224211;27;109221;-58
2024/01/29 09:30:35;;;;;;;2.73;2.53;;;;;;;21.86;27.61;96800.00;6235110;27;110378;-58
2024/01/29 09:33:39;;;;;;;3.00;2.50;;;;;;;21.86;27.71;96799.19;6234612;27;109118;-58
2024/01/29 09:36:42;;;;;;;2.90;2.60;;;;;;;21.90;27.53;96797.59;6234265;27;110036;-58
2024/01/29 09:39:45;;;;;;;2.40;2.20;;;;;;;21.91;27.59;96794.66;6225208;27;109891;-58
2024/01/29 09:42:50;;;;;;;2.77;2.07;;;;;;;21.93;27.29;96789.88;6235054;28;108957;-58
2024/01/29 09:45:54;;;;;;;3.10;2.80;;;;;;;21.94;27.22;96791.47;6234667;27;109115;-59
2024/01/29 09:48:59;;;;;;;2.67;2.47;;;;;;;21.92;27.70;96793.59;6230204;27;110667;-58
2024/01/29 09:52:04;;;;;;;3.20;2.10;;;;;;;21.91;27.58;96792.00;6229294;28;110108;-57
2024/01/29 09:55:11;;;;;;;2.90;2.47;;;;;;;21.93;27.55;96791.75;6234562;27;109068;-58
2024/01/29 09:58:14;;;;;;;2.57;2.20;;;;;;;21.89;27.35;96790.66;6233834;27;108973;-57
2024/01/29 10:01:18;;;;;;;2.50;1.90;;;;;;;21.93;27.35;96779.22;6223748;27;110132;-57
2024/01/29 10:04:23;;;;;;;2.50;2.30;;;;;;;21.90;27.41;96785.06;6234461;27;109371;-58
2024/01/29 10:07:26;;;;;;;2.10;1.90;;;;;;;21.90;27.39;96789.59;6233310;27;109282;-58
2024/01/29 10:10:30;;;;;;;2.83;2.43;;;;;;;21.89;27.37;96783.47;6234052;27;109173;-58
2024/01/29 10:13:33;;;;;;;2.20;1.90;;;;;;;21.87;27.83;96785.59;6223179;27;111309;-58
2024/01/29 10:16:36;;;;;;;2.87;2.30;;;;;;;21.89;27.48;96783.47;6234093;28;110786;-58
2024/01/29 10:19:43;;;;;;;2.43;2.13;;;;;;;21.88;27.62;96781.06;6234517;28;109458;-58
2024/01/29 10:22:46;;;;;;;2.70;1.90;;;;;;;21.89;27.82;96785.34;6233810;27;109034;-57
2024/01/29 10:25:56;;;;;;;2.70;2.10;;;;;;;21.87;27.69;96779.47;6223565;27;109116;-58
2024/01/29 10:29:01;;;;;;;2.87;2.63;;;;;;;21.86;27.21;96783.19;6234028;27;110047;-57
2024/01/29 10:32:05;;;;;;;2.10;1.90;;;;;;;21.87;27.72;96779.47;6234194;27;110119;-58
2024/01/29 10:35:10;;;;;;;2.70;2.30;;;;;;;21.89;27.84;96774.69;6222953;27;109318;-58
2024/01/29 10:38:15;;;;;;;3.10;1.87;;;;;;;21.90;27.74;96769.06;6232533;27;109269;-58
2024/01/29 10:41:21;;;;;;;2.10;1.90;;;;;;;21.87;27.36;96766.94;6233835;27;111338;-58
2024/01/29 10:44:26;;;;;;;2.40;2.20;;;;;;;21.88;27.51;96760.53;6233563;27;109062;-58
2024/01/29 10:47:33;;;;;;;2.30;2.10;;;;;;;21.88;27.84;96760.53;6222195;27;109092;-58
2024/01/29 10:50:39;;;;;;;4.20;2.10;;;;;;;21.88;27.43;96757.88;6233946;27;109172;-58
2024/01/29 10:53:42;;;;;;;1.83;1.63;;;;;;;21.90;27.43;96761.09;6233323;27;109467;-58
2024/01/29 10:56:45;;;;;;;2.73;2.23;;;;;;;21.89;27.36;96758.69;6233600;27;110031;-58
2024/01/29 10:59:49;;;;;;;2.23;1.97;;;;;;;21.88;27.21;96754.41;6223795;27;109543;-61
2024/01/29 11:02:52;;;;;;;1.83;1.57;;;;;;;21.88;27.57;96759.75;6233232;27;109258;-60
2024/01/29 11:06:05;;;;;;;2.20;1.70;;;;;;;21.90;27.63;96752.28;6233318;27;109221;-60
2024/01/29 11:09:13;;;;;;;2.67;2.10;;;;;;;21.89;27.75;96748.81;6226268;27;110032;-59
2024/01/29 11:12:17;;;;;;;2.20;1.93;;;;;;;21.92;27.68;96752.81;6232256;27;109275;-59
2024/01/29 11:15:20;;;;;;;2.23;1.80;;;;;;;21.93;27.11;96735.75;6233473;27;110215;-61
2024/01/29 11:18:23;;;;;;;2.10;1.63;;;;;;;21.93;27.37;96731.22;6232764;27;109657;-60
2024/01/29 11:21:28;;;;;;;2.73;2.10;;;;;;;21.92;27.68;96732.31;6222688;27;109316;-60
2024/01/29 11:24:34;;;;;;;2.30;1.80;;;;;;;21.93;27.57;96731.22;6208408;28;110215;-59
2024/01/29 11:27:39;;;;;;;3.67;2.10;;;;;;;21.92;27.50;96729.63;6221384;28;109757;-60
2024/01/29 11:30:49;;;;;;;2.07;1.70;;;;;;;21.96;27.60;96729.91;6237060;27;109076;-60
2024/01/29 11:33:52;;;;;;;1.90;1.60;;;;;;;21.97;27.48;96726.97;6226478;27;109040;-60
2024/01/29 11:36:57;;;;;;;2.20;1.97;;;;;;;21.97;27.41;96718.97;6237381;27;110113;-60
2024/01/29 11:40:01;;;;;;;1.53;1.40;;;;;;;21.98;27.17;96722.44;6236492;27;113555;-59
2024/01/29 11:43:10;;;;;;;2.17;1.67;;;;;;;21.98;27.43;96719.78;6231828;27;109024;-59
2024/01/29 11:46:15;;;;;;;2.70;1.73;;;;;;;21.97;27.64;96712.84;6232356;27;110199;-59
2024/01/29 11:49:25;;;;;;;2.20;1.73;;;;;;;21.92;27.39;96707.50;6236701;27;109075;-60
2024/01/29 11:52:31;;;;;;;2.47;2.20;;;;;;;21.91;27.49;96706.72;6236827;27;109027;-61
2024/01/29 11:55:34;;;;;;;1.80;1.63;;;;;;;21.92;27.81;96702.19;6226436;27;110392;-59
2024/01/29 11:58:37;;;;;;;3.27;2.37;;;;;;;21.91;27.32;96706.72;6235995;27;109213;-61
2024/01/29 12:01:43;;;;;;;1.70;1.53;;;;;;;21.88;27.36;96698.44;6237019;27;110497;-61
2024/01/29 12:04:47;;;;;;;2.10;1.60;;;;;;;21.88;27.82;96699.25;6211947;28;110112;-61
2024/01/29 12:07:53;;;;;;;2.00;1.60;;;;;;;21.89;27.27;96694.72;6210107;28;110105;-58
2024/01/29 12:11:00;;;;;;;1.97;1.63;;;;;;;21.87;27.65;96694.97;6235978;27;110072;-59
2024/01/29 12:14:04;;;;;;;1.63;1.53;;;;;;;21.87;27.15;96689.66;6236211;28;110118;-58
2024/01/29 12:17:09;;;;;;;2.30;2.10;;;;;;;21.85;27.58;96691.00;6230836;27;109220;-58
2024/01/29 12:20:13;;;;;;;2.70;2.13;;;;;;;21.85;27.62;96686.47;6230378;27;109425;-58
2024/01/29 12:23:20;;;;;;;2.10;1.90;;;;;;;21.85;27.79;96686.47;6235911;27;109532;-58
2024/01/29 12:26:28;;;;;;;2.80;1.93;;;;;;;21.80;27.73;96684.53;6236119;27;108987;-58
2024/01/29 12:29:34;;;;;;;2.20;1.77;;;;;;;21.82;27.29;96676.31;6224860;27;109408;-59
2024/01/29 12:32:39;;;;;;;2.30;1.97;;;;;;;21.83;27.45;96680.56;6236626;27;110021;-58
2024/01/29 12:35:42;;;;;;;2.13;1.80;;;;;;;21.81;27.15;96691.47;6235898;27;109055;-57
2024/01/29 12:38:53;;;;;;;2.17;1.80;;;;;;;21.83;27.33;96693.09;6235386;27;109460;-58
2024/01/29 12:41:57;;;;;;;2.13;1.80;;;;;;;21.79;27.21;96690.13;6224313;27;109210;-59
2024/01/29 12:45:09;;;;;;;2.53;1.90;;;;;;;21.80;27.29;96694.38;6211079;28;109167;-58
2024/01/29 12:48:15;;;;;;;2.00;1.70;;;;;;;21.81;27.01;96690.66;6220336;28;109124;-58
2024/01/29 12:51:18;;;;;;;2.27;1.67;;;;;;;21.78;27.22;96689.31;6231026;27;110327;-57
2024/01/29 12:54:23;;;;;;;2.80;1.70;;;;;;;21.77;27.41;96694.91;6230436;27;110306;-58
2024/01/29 12:57:26;;;;;;;2.33;1.70;;;;;;;21.79;27.59;96687.47;6235027;27;109121;-58
2024/01/29 13:00:29;;;;;;;2.23;1.80;;;;;;;21.79;27.50;96684.78;6235787;27;110342;-58
2024/01/29 13:03:33;;;;;;;1.90;1.70;;;;;;;21.80;27.37;96687.19;6224813;27;110175;-58
2024/01/29 13:06:36;;;;;;;2.33;1.80;;;;;;;21.79;27.22;96687.47;6235224;27;109130;-58
2024/01/29 13:09:41;;;;;;;2.10;1.90;;;;;;;21.79;27.69;96693.59;6235222;28;110172;-58
2024/01/29 13:12:44;;;;;;;2.00;1.67;;;;;;;21.79;27.42;96688.25;6234600;27;110075;-59
2024/01/29 13:15:51;;;;;;;2.07;1.53;;;;;;;21.82;27.41;96689.63;6224991;27;110189;-58
2024/01/29 13:18:54;;;;;;;1.90;1.70;;;;;;;21.79;27.52;96682.94;6235562;27;110568;-59
2024/01/29 13:21:59;;;;;;;2.47;1.93;;;;;;;21.80;27.25;96686.41;6235415;27;109052;-57
2024/01/29 13:25:05;;;;;;;2.30;1.90;;;;;;;21.79;27.12;96682.94;6230579;27;109432;-59
2024/01/29 13:28:08;;;;;;;2.10;1.50;;;;;;;21.93;27.30;96674.47;6229769;27;110140;-58
2024/01/29 13:31:12;;;;;;;2.10;1.70;;;;;;;21.98;27.38;96680.59;6234588;27;109074;-58
2024/01/29 13:34:19;;;;;;;1.90;1.43;;;;;;;22.01;27.49;96680.09;6235062;27;109367;-58
2024/01/29 13:37:23;;;;;;;2.03;1.60;;;;;;;22.07;27.31;96679.03;6225012;27;110406;-60
2024/01/29 13:40:27;;;;;;;2.27;1.60;;;;;;;22.06;27.25;96693.41;6210130;28;109268;-58
2024/01/29 13:43:30;;;;;;;4.67;2.07;;;;;;;22.09;27.82;96674.22;6218045;28;109312;-60
2024/01/29 13:46:33;;;;;;;1.60;1.37;;;;;;;22.10;27.55;96678.47;6234861;27;110240;-58
2024/01/29 13:49:37;;;;;;;1.67;1.40;;;;;;;22.09;27.71;96682.22;6222622;27;110133;-59
2024/01/29 13:52:41;;;;;;;1.90;1.63;;;;;;;22.08;27.59;96672.63;6234680;27;109338;-58
2024/01/29 13:55:46;;;;;;;2.23;1.60;;;;;;;22.11;27.52;96682.75;6234949;27;109438;-58
2024/01/29 13:58:49;;;;;;;2.30;1.63;;;;;;;22.00;27.77;96686.44;6234073;27;110551;-59
2024/01/29 14:01:53;;;;;;;2.80;1.50;;;;;;;21.94;28.17;96682.19;6224364;27;110258;-59
2024/01/29 14:04:56;;;;;;;2.30;1.57;;;;;;;21.94;27.69;96690.19;6234830;27;110663;-59
2024/01/29 14:07:59;;;;;;;4.10;1.33;;;;;;;21.90;28.07;96689.13;6234011;27;109072;-58
2024/01/29 14:11:04;;;;;;;2.10;1.70;;;;;;;21.90;27.68;96691.78;6228193;27;109098;-58
2024/01/29 14:14:07;;;;;;;2.17;1.67;;;;;;;21.87;28.06;96694.19;6230703;27;110341;-57